Time;durP1;ratioP1;P1;durP2;ratioP2;P2;SDS_P1;SDS_P2;PMS_P1;PMS_P2;Temp;Humidity;BMP_temperature;BMP_pressure;BME280_temperature;BME280_humidity;BME280_pressure;Samples;Min_cycle;Max_cycle;Signal;HPM_P1;HPM_P2
2021/06/15 00:00:16;;;;;;;8.23;6.78;;;;;;;8.80;80.96;96521.50;3565924;40;20047;-56
2021/06/15 00:02:44;;;;;;;8.93;7.10;;;;;;;8.82;80.96;96516.81;3578331;39;20051;-56
2021/06/15 00:05:13;;;;;;;8.23;6.57;;;;;;;8.76;80.88;96510.66;3587147;39;20052;-56
2021/06/15 00:07:41;;;;;;;8.65;6.90;;;;;;;8.76;80.55;96523.03;3591087;39;20049;-55
2021/06/15 00:10:28;;;;;;;9.40;6.65;;;;;;;8.78;80.73;96518.34;3576209;39;20048;-56
2021/06/15 00:12:57;;;;;;;6.65;5.97;;;;;;;8.73;80.86;96510.31;3584178;39;20435;-55
2021/06/15 00:15:25;;;;;;;7.40;6.55;;;;;;;8.75;80.96;96518.78;3588683;39;20047;-55
2021/06/15 00:17:53;;;;;;;7.03;6.32;;;;;;;8.66;81.55;96507.00;3588123;39;20056;-55
2021/06/15 00:20:22;;;;;;;10.65;6.78;;;;;;;8.69;81.92;96503.91;3576995;39;20461;-55
2021/06/15 00:22:49;;;;;;;9.77;7.88;;;;;;;8.70;81.72;96508.94;3574419;40;20043;-55
2021/06/15 00:25:17;;;;;;;10.63;8.13;;;;;;;8.63;81.32;96515.34;3590447;39;20048;-56
2021/06/15 00:27:47;;;;;;;8.32;6.70;;;;;;;8.63;82.35;96510.09;3585911;39;20062;-55
2021/06/15 00:30:17;;;;;;;10.77;8.27;;;;;;;8.63;82.03;96510.09;3576443;39;20070;-55
2021/06/15 00:32:47;;;;;;;9.45;7.95;;;;;;;8.64;82.17;96503.81;3579192;39;20044;-55
2021/06/15 00:35:15;;;;;;;8.75;7.75;;;;;;;8.63;81.78;96510.88;3586753;39;20046;-56
2021/06/15 00:37:43;;;;;;;12.60;8.00;;;;;;;8.54;81.96;96505.19;3580905;39;20375;-56
2021/06/15 00:40:11;;;;;;;11.65;8.13;;;;;;;8.56;82.06;96521.50;3577441;40;20044;-56
2021/06/15 00:42:39;;;;;;;10.40;7.07;;;;;;;8.61;82.00;96520.84;3581007;40;20407;-55
2021/06/15 00:45:12;;;;;;;8.55;7.40;;;;;;;8.61;81.00;96519.00;3589361;39;20060;-55
2021/06/15 00:47:44;;;;;;;8.93;7.18;;;;;;;8.61;81.68;96513.75;3578266;39;20052;-55
2021/06/15 00:50:13;;;;;;;11.43;7.07;;;;;;;8.61;81.10;96511.13;3582433;39;20058;-55
2021/06/15 00:52:42;;;;;;;8.60;6.30;;;;;;;8.61;81.15;96512.97;3565353;40;20044;-55
2021/06/15 00:55:12;;;;;;;12.45;8.18;;;;;;;8.58;81.30;96502.88;3587552;39;20058;-55
2021/06/15 00:57:40;;;;;;;11.25;6.78;;;;;;;8.54;80.54;96507.00;3592999;39;20036;-55
2021/06/15 01:00:08;;;;;;;6.25;5.65;;;;;;;8.51;80.39;96512.69;3591351;39;20074;-55
2021/06/15 01:02:37;;;;;;;9.75;6.68;;;;;;;8.52;80.89;96501.16;3584185;40;20044;-56
2021/06/15 01:05:09;;;;;;;9.45;6.60;;;;;;;8.50;80.47;96501.41;3579757;39;20044;-55
2021/06/15 01:07:47;;;;;;;6.90;5.55;;;;;;;8.48;80.15;96500.81;3583571;40;20049;-55
2021/06/15 01:10:31;;;;;;;6.97;5.35;;;;;;;8.44;80.41;96504.88;3591309;39;20431;-55
2021/06/15 01:13:13;;;;;;;7.20;5.95;;;;;;;8.35;79.81;96512.31;3567841;40;20054;-55
2021/06/15 01:15:55;;;;;;;9.02;5.15;;;;;;;8.31;80.48;96509.31;3581411;40;20086;-56
2021/06/15 01:18:26;;;;;;;8.05;5.38;;;;;;;8.34;80.26;96500.22;3569470;39;20113;-55
2021/06/15 01:21:04;;;;;;;10.23;5.03;;;;;;;8.34;80.38;96507.28;3581469;40;20435;-55
2021/06/15 01:23:40;;;;;;;9.93;5.18;;;;;;;8.28;80.31;96495.84;3592067;39;20048;-55
2021/06/15 01:26:25;;;;;;;7.78;5.53;;;;;;;8.26;80.90;96511.03;3590307;39;20062;-55
2021/06/15 01:29:08;;;;;;;8.80;5.28;;;;;;;8.26;80.71;96505.78;3592796;39;20427;-55
2021/06/15 01:31:45;;;;;;;8.27;5.32;;;;;;;8.25;80.73;96510.25;3600554;39;20056;-55
2021/06/15 01:34:21;;;;;;;11.20;6.45;;;;;;;8.24;81.47;96508.63;3591661;40;20047;-55
2021/06/15 01:37:08;;;;;;;10.55;6.63;;;;;;;8.23;81.65;96506.25;3582621;40;20044;-55
2021/06/15 01:40:13;;;;;;;9.35;6.78;;;;;;;8.20;81.64;96507.47;3590387;39;20062;-55
2021/06/15 01:42:54;;;;;;;7.88;6.25;;;;;;;8.18;81.16;96499.03;3588934;39;20060;-55
2021/06/15 01:45:33;;;;;;;11.07;6.70;;;;;;;8.16;80.75;96496.63;3589371;39;20064;-55
2021/06/15 01:48:25;;;;;;;7.78;6.20;;;;;;;8.11;80.51;96503.59;3582522;39;20450;-55
2021/06/15 01:50:55;;;;;;;12.18;6.18;;;;;;;8.10;80.59;96496.72;3590022;39;20048;-55
2021/06/15 01:53:24;;;;;;;8.65;6.38;;;;;;;8.07;81.02;96492.72;3582793;40;21055;-55
2021/06/15 01:56:01;;;;;;;9.18;5.60;;;;;;;8.00;80.69;96487.56;3579902;40;20411;-55
2021/06/15 01:58:34;;;;;;;7.20;5.28;;;;;;;7.98;80.71;96484.34;3588776;39;20049;-55
2021/06/15 02:01:03;;;;;;;5.88;5.18;;;;;;;7.92;81.39;96482.63;3579167;39;20064;-55
2021/06/15 02:03:36;;;;;;;9.98;5.28;;;;;;;7.93;81.16;96486.88;3581794;40;20047;-55
2021/06/15 02:06:11;;;;;;;8.57;6.45;;;;;;;7.90;81.24;96486.50;3590834;39;20313;-56
2021/06/15 02:08:45;;;;;;;7.43;5.75;;;;;;;7.79;80.99;96493.34;3583181;40;20657;-55
2021/06/15 02:11:35;;;;;;;8.05;5.60;;;;;;;7.75;81.30;96492.97;3565369;40;20067;-55
2021/06/15 02:14:27;;;;;;;6.93;5.65;;;;;;;7.66;82.43;96474.09;3581104;39;20720;-56
2021/06/15 02:17:14;;;;;;;8.45;5.88;;;;;;;7.72;82.23;96490.78;3582624;39;20054;-55
2021/06/15 02:20:10;;;;;;;12.18;6.60;;;;;;;7.70;81.94;96491.00;3574195;40;20044;-55
2021/06/15 02:22:45;;;;;;;11.60;7.65;;;;;;;7.68;82.44;96484.38;3576022;40;20036;-57
2021/06/15 02:25:21;;;;;;;9.38;6.78;;;;;;;7.66;81.88;96494.28;3590034;39;20047;-55
2021/06/15 02:27:49;;;;;;;11.93;6.22;;;;;;;7.62;83.21;96491.31;3584358;39;20043;-55
2021/06/15 02:30:21;;;;;;;7.18;5.50;;;;;;;7.57;82.32;96487.75;3574589;39;20062;-55
2021/06/15 02:33:02;;;;;;;7.80;5.63;;;;;;;7.58;82.11;96479.66;3582420;39;20529;-55
2021/06/15 02:35:31;;;;;;;8.02;6.30;;;;;;;7.59;82.14;96483.88;3574504;39;20050;-55
2021/06/15 02:38:06;;;;;;;7.45;5.65;;;;;;;7.57;81.87;96485.13;3575981;40;20462;-55
2021/06/15 02:40:36;;;;;;;8.10;5.82;;;;;;;7.55;81.40;96490.63;3581088;39;20040;-55
2021/06/15 02:43:06;;;;;;;7.57;5.88;;;;;;;7.52;81.37;96481.34;3581055;39;20042;-55
2021/06/15 02:45:36;;;;;;;8.52;5.50;;;;;;;7.52;81.51;96480.56;3591321;39;20052;-55
2021/06/15 02:48:07;;;;;;;7.13;5.18;;;;;;;7.48;81.71;96487.25;3576799;40;20631;-55
2021/06/15 02:50:47;;;;;;;11.73;5.82;;;;;;;7.41;81.91;96481.31;3590391;39;20044;-55
2021/06/15 02:53:18;;;;;;;9.68;5.53;;;;;;;7.38;82.60;96479.94;3587550;39;20126;-55
2021/06/15 02:56:03;;;;;;;9.48;5.63;;;;;;;7.36;82.34;96482.75;3583072;40;20593;-55
2021/06/15 02:58:37;;;;;;;9.23;5.50;;;;;;;7.33;81.99;96477.94;3582939;39;20054;-55
2021/06/15 03:01:05;;;;;;;5.72;5.03;;;;;;;7.36;82.78;96484.59;3574015;40;20044;-55
2021/06/15 03:03:39;;;;;;;9.85;5.22;;;;;;;7.37;81.45;96486.19;3571047;39;20057;-55
2021/06/15 03:06:08;;;;;;;7.70;5.47;;;;;;;7.35;82.06;96488.25;3581271;40;20646;-55
2021/06/15 03:08:39;;;;;;;5.90;4.72;;;;;;;7.37;81.65;96483.56;3584088;39;20091;-56
2021/06/15 03:11:09;;;;;;;9.77;6.20;;;;;;;7.37;81.41;96489.59;3584489;40;20052;-60
2021/06/15 03:13:48;;;;;;;7.22;5.40;;;;;;;7.31;82.07;96480.00;3581940;39;20048;-55
2021/06/15 03:16:19;;;;;;;7.57;5.32;;;;;;;7.25;82.46;96494.00;3583096;39;20062;-55
2021/06/15 03:19:08;;;;;;;7.95;5.22;;;;;;;7.30;82.51;96491.53;3580417;39;20054;-55
2021/06/15 03:21:46;;;;;;;7.65;6.60;;;;;;;7.39;81.89;96487.56;3580470;39;20074;-55
2021/06/15 03:24:23;;;;;;;9.05;5.35;;;;;;;7.47;81.88;96499.59;3592260;39;20044;-55
2021/06/15 03:26:58;;;;;;;8.53;5.83;;;;;;;7.54;82.27;96502.13;3584165;39;20056;-55
2021/06/15 03:29:32;;;;;;;9.10;5.80;;;;;;;7.69;81.84;96502.53;3590192;39;20052;-55
2021/06/15 03:32:11;;;;;;;7.43;5.80;;;;;;;8.90;78.44;96505.16;3591170;39;20290;-56
2021/06/15 03:34:49;;;;;;;6.15;5.10;;;;;;;10.48;73.64;96504.16;3590773;40;20048;-56
2021/06/15 03:37:23;;;;;;;6.30;4.65;;;;;;;11.70;69.53;96500.69;3589303;39;20058;-55
2021/06/15 03:39:54;;;;;;;;;;;;;;;12.70;67.11;96506.66;3592149;39;20058;-56
2021/06/15 03:42:25;;;;;;;7.40;4.60;;;;;;;13.75;64.58;96509.56;3580505;40;19943;-55
2021/06/15 03:45:03;;;;;;;6.63;4.47;;;;;;;14.49;61.43;96512.84;3575547;40;20577;-56
2021/06/15 03:47:34;;;;;;;7.32;4.82;;;;;;;15.32;57.05;96505.53;3579295;39;20064;-56
2021/06/15 03:50:03;;;;;;;6.72;5.50;;;;;;;15.43;54.76;96493.00;3591014;39;20062;-56
2021/06/15 03:52:35;;;;;;;10.02;5.57;;;;;;;15.62;53.70;96500.38;3588428;39;20046;-56
2021/06/15 03:55:06;;;;;;;8.95;5.13;;;;;;;16.10;53.18;96503.31;3578587;40;20048;-56
2021/06/15 03:57:42;;;;;;;11.52;5.63;;;;;;;16.47;50.85;96509.16;3591171;39;20341;-56
2021/06/15 04:00:18;;;;;;;6.22;5.15;;;;;;;16.70;49.04;96504.16;3579624;39;20044;-56
2021/06/15 04:02:48;;;;;;;11.18;5.93;;;;;;;17.18;49.75;96498.13;3597479;39;20055;-56
2021/06/15 04:05:17;;;;;;;6.82;4.75;;;;;;;17.72;48.04;96503.38;3571126;39;20067;-57
2021/06/15 04:07:46;;;;;;;7.28;4.82;;;;;;;18.19;47.60;96508.88;3580248;39;20105;-56
2021/06/15 04:10:16;;;;;;;7.80;4.90;;;;;;;18.34;45.38;96508.66;3599923;39;20038;-55
2021/06/15 04:12:45;;;;;;;7.50;6.07;;;;;;;18.34;44.56;96508.66;3580490;40;20047;-56
2021/06/15 04:15:13;;;;;;;6.43;4.45;;;;;;;18.25;45.60;96505.84;3578369;40;20058;-56
2021/06/15 04:17:49;;;;;;;4.88;3.45;;;;;;;18.42;45.42;96507.97;3578818;39;20056;-56
2021/06/15 04:20:20;;;;;;;;;;;;;;;18.65;44.01;96510.81;3589291;39;20423;-57
2021/06/15 04:22:48;;;;;;;7.63;3.50;;;;;;;18.92;44.46;96501.25;3595339;39;19932;-56
2021/06/15 04:25:22;;;;;;;4.30;3.65;;;;;;;19.18;42.93;96506.16;3572016;39;20052;-57
2021/06/15 04:27:50;;;;;;;3.72;3.22;;;;;;;19.21;43.18;96501.00;3591283;39;20044;-56
2021/06/15 04:30:19;;;;;;;6.07;3.83;;;;;;;19.34;42.70;96499.44;3580697;39;20052;-56
2021/06/15 04:32:53;;;;;;;9.27;4.70;;;;;;;19.36;43.20;96499.94;3580338;40;20077;-57
2021/06/15 04:35:25;;;;;;;8.68;4.47;;;;;;;19.55;42.23;96492.91;3585817;39;20044;-57
2021/06/15 04:37:54;;;;;;;8.45;3.95;;;;;;;19.47;42.54;96499.75;3591345;39;20064;-56
2021/06/15 04:40:28;;;;;;;12.25;5.18;;;;;;;19.54;42.57;96492.09;3587308;39;20063;-57
2021/06/15 04:43:08;;;;;;;5.50;3.95;;;;;;;19.59;41.68;96502.69;3557482;40;20050;-57
2021/06/15 04:45:43;;;;;;;7.45;4.20;;;;;;;19.53;42.85;96506.56;3571500;40;20153;-57
2021/06/15 04:48:31;;;;;;;12.20;4.25;;;;;;;19.59;42.71;96507.25;3568903;39;20078;-57
2021/06/15 04:51:03;;;;;;;9.85;4.97;;;;;;;19.43;42.07;96518.28;3581261;39;20060;-56
2021/06/15 04:53:36;;;;;;;10.07;4.80;;;;;;;19.09;44.47;96524.78;3582781;40;20048;-56
2021/06/15 04:56:06;;;;;;;7.95;4.43;;;;;;;19.16;44.96;96524.38;3585817;39;20056;-56
2021/06/15 04:58:34;;;;;;;9.23;5.10;;;;;;;19.11;43.68;96519.16;3589077;39;20044;-57
2021/06/15 05:01:03;;;;;;;15.60;5.05;;;;;;;19.14;44.13;96522.03;3586599;39;20062;-57
2021/06/15 05:03:32;;;;;;;11.43;5.15;;;;;;;19.41;43.51;96516.97;3575189;39;20051;-57
2021/06/15 05:06:04;;;;;;;9.27;4.38;;;;;;;19.41;43.54;96522.31;3587710;39;20044;-56
2021/06/15 05:08:39;;;;;;;12.10;5.75;;;;;;;19.68;43.60;96524.19;3585041;39;22016;-57
2021/06/15 05:11:07;;;;;;;10.35;5.50;;;;;;;19.78;43.35;96525.84;3586943;39;20052;-57
2021/06/15 05:13:38;;;;;;;15.25;5.65;;;;;;;19.73;43.41;96517.94;3565013;40;20050;-62
2021/06/15 05:16:08;;;;;;;10.48;5.78;;;;;;;19.19;43.51;96521.94;3572346;39;20222;-57
2021/06/15 05:18:37;;;;;;;10.82;5.07;;;;;;;18.60;45.18;96524.28;3589461;39;20058;-57
2021/06/15 05:21:15;;;;;;;16.20;6.55;;;;;;;17.91;47.72;96528.19;3579306;40;20040;-56
2021/06/15 05:23:55;;;;;;;16.35;6.15;;;;;;;17.25;49.75;96524.47;3588798;39;20044;-56
2021/06/15 05:26:24;;;;;;;15.60;6.57;;;;;;;16.82;51.08;96517.91;3585995;39;21821;-56
2021/06/15 05:28:51;;;;;;;17.58;7.45;;;;;;;16.49;52.21;96523.00;3585736;39;20056;-56
2021/06/15 05:31:19;;;;;;;16.25;6.82;;;;;;;16.18;52.75;96517.91;3588968;39;20063;-56
2021/06/15 05:33:47;;;;;;;16.30;7.55;;;;;;;15.86;53.59;96510.38;3572222;40;20071;-57
2021/06/15 05:36:15;;;;;;;12.68;6.88;;;;;;;15.64;55.13;96509.66;3580019;40;20059;-56
2021/06/15 05:38:43;;;;;;;16.00;7.72;;;;;;;15.51;55.80;96516.34;3588731;40;20062;-56
2021/06/15 05:41:11;;;;;;;15.63;5.72;;;;;;;15.45;56.25;96521.97;3587816;39;20058;-56
2021/06/15 05:43:39;;;;;;;21.88;6.32;;;;;;;15.36;56.22;96517.22;3571224;39;20068;-56
2021/06/15 05:46:07;;;;;;;8.57;5.30;;;;;;;15.24;56.47;96510.63;3593000;39;20046;-56
2021/06/15 05:48:35;;;;;;;9.15;5.57;;;;;;;15.00;57.01;96506.69;3592280;39;20062;-56
2021/06/15 05:51:04;;;;;;;9.93;5.47;;;;;;;14.96;57.48;96512.81;3591086;39;20048;-56
2021/06/15 05:53:32;;;;;;;6.97;4.97;;;;;;;14.92;57.94;96509.91;3580266;39;20446;-56
2021/06/15 05:56:00;;;;;;;12.65;5.22;;;;;;;14.86;56.98;96510.97;3588466;39;20078;-56
2021/06/15 05:58:28;;;;;;;7.80;4.57;;;;;;;14.89;58.04;96515.75;3578800;40;20070;-56
2021/06/15 06:00:55;;;;;;;8.32;5.15;;;;;;;14.94;57.39;96518.41;3593647;40;20051;-56
2021/06/15 06:03:31;;;;;;;27.40;25.15;;;;;;;15.02;58.37;96512.53;3580286;40;20067;-56
2021/06/15 06:08:48;;;;;;;13.07;5.95;;;;;;;15.13;57.51;96525.78;3573481;40;20397;-56
2021/06/15 06:11:15;;;;;;;9.30;5.00;;;;;;;15.26;56.48;96519.91;3588448;39;20495;-56
2021/06/15 06:13:43;;;;;;;12.57;5.53;;;;;;;15.33;57.39;96515.09;3582140;39;20044;-56
2021/06/15 06:16:12;;;;;;;12.95;5.53;;;;;;;15.47;56.98;96519.84;3572806;39;20452;-56
2021/06/15 06:18:40;;;;;;;11.82;4.85;;;;;;;15.60;56.17;96513.94;3581693;40;20067;-56
2021/06/15 06:21:10;;;;;;;7.07;5.28;;;;;;;15.74;56.02;96510.69;3581290;39;20059;-56
2021/06/15 06:23:38;;;;;;;9.95;4.85;;;;;;;15.80;56.08;96513.03;3590483;39;20043;-56
2021/06/15 06:26:06;;;;;;;12.35;4.85;;;;;;;15.88;56.70;96510.91;3580427;40;20489;-56
2021/06/15 06:28:34;;;;;;;7.35;4.82;;;;;;;16.09;55.50;96519.53;3584000;39;20056;-56
2021/06/15 06:31:02;;;;;;;7.53;5.22;;;;;;;16.14;55.28;96519.53;3574670;40;20050;-56
2021/06/15 06:33:30;;;;;;;8.60;4.53;;;;;;;16.22;54.17;96518.94;3582103;39;20051;-56
2021/06/15 06:35:58;;;;;;;10.10;5.22;;;;;;;16.22;54.17;96518.16;3584081;40;20058;-56
2021/06/15 06:38:26;;;;;;;9.43;5.65;;;;;;;16.12;55.09;96513.69;3591495;39;20062;-56
2021/06/15 06:40:53;;;;;;;11.25;5.38;;;;;;;15.94;54.10;96515.91;3581690;40;20054;-56
2021/06/15 06:43:21;;;;;;;7.85;5.35;;;;;;;15.96;55.39;96516.44;3593077;39;20522;-55
2021/06/15 06:45:48;;;;;;;6.03;5.18;;;;;;;16.01;54.67;96504.94;3589190;39;20056;-56
2021/06/15 06:48:18;;;;;;;8.43;5.85;;;;;;;16.15;54.69;96513.13;3585083;40;20077;-56
2021/06/15 06:50:45;;;;;;;12.85;5.57;;;;;;;16.23;54.29;96504.56;3584113;40;20531;-55
2021/06/15 06:53:13;;;;;;;10.55;5.65;;;;;;;16.39;54.81;96507.09;3592798;39;20078;-56
2021/06/15 06:55:41;;;;;;;9.63;4.63;;;;;;;16.48;54.56;96510.75;3592473;40;20078;-56
2021/06/15 06:58:10;;;;;;;7.82;5.28;;;;;;;16.59;54.26;96512.25;3573158;40;20038;-55
2021/06/15 07:00:38;;;;;;;10.20;4.88;;;;;;;16.67;54.12;96500.22;3574924;40;20052;-56
2021/06/15 07:03:06;;;;;;;12.50;5.90;;;;;;;16.74;53.91;96498.00;3578964;40;20048;-56
2021/06/15 07:05:33;;;;;;;15.60;6.40;;;;;;;16.81;54.36;96503.00;3590114;39;20051;-55
2021/06/15 07:08:01;;;;;;;12.85;6.63;;;;;;;16.98;54.25;96499.16;3565960;39;20050;-56
2021/06/15 07:10:30;;;;;;;16.42;7.15;;;;;;;17.09;52.92;96491.84;3570062;40;20052;-56
2021/06/15 07:12:58;;;;;;;12.80;5.68;;;;;;;16.99;52.32;96493.53;3581222;40;20048;-56
2021/06/15 07:15:26;;;;;;;12.55;5.35;;;;;;;16.85;51.72;96498.69;3589390;39;20323;-56
2021/06/15 07:17:54;;;;;;;9.88;5.22;;;;;;;16.88;52.12;96492.81;3590998;40;20464;-56
2021/06/15 07:20:21;;;;;;;9.15;4.75;;;;;;;16.94;51.92;96495.41;3570240;40;20054;-56
2021/06/15 07:22:49;;;;;;;9.85;4.95;;;;;;;17.11;52.10;96493.16;3573302;39;20069;-55
2021/06/15 07:25:17;;;;;;;15.38;5.53;;;;;;;17.27;51.87;96487.66;3580466;40;20055;-56
2021/06/15 07:27:45;;;;;;;10.80;4.47;;;;;;;17.48;52.24;96493.50;3590183;40;20435;-56
2021/06/15 07:30:13;;;;;;;11.13;5.15;;;;;;;17.40;51.60;96492.28;3589688;39;20439;-56
2021/06/15 07:32:41;;;;;;;11.57;4.70;;;;;;;17.50;52.40;96484.16;3583714;40;20047;-56
2021/06/15 07:35:09;;;;;;;8.45;4.80;;;;;;;17.70;52.00;96489.53;3574685;39;20426;-55
2021/06/15 07:37:37;;;;;;;8.10;4.82;;;;;;;17.74;50.72;96477.97;3578016;39;20048;-56
2021/06/15 07:40:07;;;;;;;8.07;4.43;;;;;;;17.95;51.46;96486.50;3563627;40;20048;-56
2021/06/15 07:42:35;;;;;;;7.47;4.38;;;;;;;18.08;50.42;96482.31;3591003;40;20048;-56
2021/06/15 07:45:04;;;;;;;6.82;3.83;;;;;;;18.22;50.29;96484.25;3586246;39;20052;-56
2021/06/15 07:47:32;;;;;;;8.93;4.32;;;;;;;18.41;50.06;96477.00;3589307;39;20036;-56
2021/06/15 07:50:13;;;;;;;9.27;4.60;;;;;;;18.48;50.41;96470.50;3592330;39;20304;-55
2021/06/15 07:52:42;;;;;;;6.20;3.83;;;;;;;18.43;48.38;96453.47;3590359;39;20401;-55
2021/06/15 07:55:11;;;;;;;8.10;4.38;;;;;;;18.53;50.91;96460.53;3591015;39;20056;-55
2021/06/15 07:57:40;;;;;;;8.45;3.85;;;;;;;18.58;49.04;96464.97;3573644;40;20052;-56
2021/06/15 08:00:10;;;;;;;6.78;3.85;;;;;;;18.74;49.11;96462.81;3579330;40;20320;-56
2021/06/15 08:02:46;;;;;;;6.30;3.60;;;;;;;18.91;49.43;96459.56;3579679;39;20059;-56
2021/06/15 08:05:15;;;;;;;7.07;4.00;;;;;;;19.08;48.74;96460.91;3578957;40;20285;-56
2021/06/15 08:07:48;;;;;;;10.43;4.38;;;;;;;19.08;48.40;96460.91;3574301;40;20111;-56
2021/06/15 08:10:19;;;;;;;9.23;3.95;;;;;;;18.99;47.57;96456.25;3575945;40;20651;-55
2021/06/15 08:12:48;;;;;;;7.65;3.97;;;;;;;18.98;48.51;96452.00;3579288;40;20044;-57
2021/06/15 08:15:17;;;;;;;8.10;4.13;;;;;;;19.13;47.72;96442.88;3571193;40;20432;-56
2021/06/15 08:17:45;;;;;;;7.95;3.88;;;;;;;19.40;49.49;96446.63;3584781;39;20068;-56
2021/06/15 08:20:14;;;;;;;9.80;4.43;;;;;;;19.63;48.89;96444.78;3580505;40;20063;-56
2021/06/15 08:22:42;;;;;;;6.63;3.30;;;;;;;19.86;47.87;96442.19;3578581;40;20443;-57
2021/06/15 08:25:10;;;;;;;5.53;3.20;;;;;;;20.03;48.17;96438.06;3580475;40;20040;-56
2021/06/15 08:27:38;;;;;;;7.00;3.78;;;;;;;20.04;46.57;96442.31;3571134;40;20088;-56
2021/06/15 08:30:08;;;;;;;10.52;4.68;;;;;;;19.97;45.58;96440.06;3579226;40;20056;-56
2021/06/15 08:32:36;;;;;;;5.80;3.83;;;;;;;20.00;44.38;96442.13;3581041;40;20055;-57
2021/06/15 08:35:05;;;;;;;15.38;4.30;;;;;;;19.94;45.08;96430.75;3581450;40;20286;-57
2021/06/15 08:37:37;;;;;;;5.85;3.80;;;;;;;19.87;44.16;96427.72;3580073;40;20064;-56
2021/06/15 08:40:06;;;;;;;8.73;3.72;;;;;;;19.96;44.99;96433.13;3580085;40;20613;-56
2021/06/15 08:42:37;;;;;;;7.72;3.70;;;;;;;20.13;44.58;96421.75;3579266;40;20051;-56
2021/06/15 08:45:07;;;;;;;10.05;4.32;;;;;;;20.26;43.92;96428.13;3578091;40;20410;-56
2021/06/15 08:47:40;;;;;;;10.27;3.13;;;;;;;20.36;45.69;96422.53;3573127;40;20048;-56
2021/06/15 08:50:10;;;;;;;7.13;3.30;;;;;;;20.52;44.06;96420.25;3580896;39;20048;-55
2021/06/15 08:52:38;;;;;;;5.60;3.10;;;;;;;20.75;43.03;96412.16;3580568;40;20573;-55
2021/06/15 08:55:11;;;;;;;6.55;3.08;;;;;;;20.92;44.14;96410.66;3582402;40;20050;-55
2021/06/15 08:57:40;;;;;;;3.78;3.05;;;;;;;21.09;43.64;96410.72;3578415;40;20053;-55
2021/06/15 09:00:12;;;;;;;11.25;3.45;;;;;;;21.17;42.26;96401.13;3580742;40;20056;-55
2021/06/15 09:02:48;;;;;;;5.90;3.92;;;;;;;21.22;40.96;96397.50;3582206;40;20057;-55
2021/06/15 09:05:18;;;;;;;6.57;2.88;;;;;;;21.29;41.73;96409.34;3580601;40;20398;-56
2021/06/15 09:08:02;;;;;;;6.20;3.13;;;;;;;21.27;41.83;96406.19;3581799;40;20052;-55
2021/06/15 09:10:43;;;;;;;7.45;3.20;;;;;;;21.48;42.91;96406.34;3581346;40;20074;-55
2021/06/15 09:13:33;;;;;;;6.75;2.67;;;;;;;21.70;42.45;96407.38;3581892;40;20054;-55
2021/06/15 09:16:19;;;;;;;8.52;3.20;;;;;;;21.93;41.36;96412.56;3582846;39;20059;-55
2021/06/15 09:18:48;;;;;;;6.93;3.70;;;;;;;22.06;42.13;96406.25;3573693;40;20052;-55
2021/06/15 09:21:31;;;;;;;4.78;3.28;;;;;;;22.17;41.13;96404.00;3584758;40;20211;-55
2021/06/15 09:24:12;;;;;;;6.93;3.28;;;;;;;22.25;40.74;96403.22;3582503;40;20409;-55
2021/06/15 09:27:10;;;;;;;5.30;3.15;;;;;;;22.33;41.94;96398.94;3576137;40;20509;-55
2021/06/15 09:29:40;;;;;;;6.68;2.95;;;;;;;22.38;40.44;96398.75;3582668;40;20068;-54
2021/06/15 09:32:11;;;;;;;2.47;2.28;;;;;;;22.44;40.14;96398.63;3583031;40;20057;-55
2021/06/15 09:34:47;;;;;;;7.95;3.28;;;;;;;22.44;39.95;96399.38;3583477;40;20040;-54
2021/06/15 09:37:15;;;;;;;6.25;2.78;;;;;;;22.44;39.15;96393.22;3582670;40;20076;-55
2021/06/15 09:39:43;;;;;;;7.63;2.95;;;;;;;22.31;38.93;96393.09;3581018;40;20040;-55
2021/06/15 09:42:12;;;;;;;5.60;2.85;;;;;;;22.20;37.60;96383.78;3581958;40;20052;-55
2021/06/15 09:44:39;;;;;;;5.53;2.92;;;;;;;22.08;39.45;96390.59;3581223;40;20054;-55
2021/06/15 09:47:08;;;;;;;9.18;3.25;;;;;;;22.11;39.21;96387.25;3584340;40;20038;-57
2021/06/15 09:49:37;;;;;;;5.25;2.78;;;;;;;22.27;39.20;96379.50;3583820;40;21309;-57
2021/06/15 09:52:09;;;;;;;5.72;2.88;;;;;;;22.43;39.31;96373.63;3584290;40;20056;-57
2021/06/15 09:54:41;;;;;;;6.72;2.67;;;;;;;22.43;38.32;96370.94;3574467;40;20138;-57
2021/06/15 09:57:13;;;;;;;3.58;2.60;;;;;;;22.52;37.77;96360.16;3589748;40;20055;-55
2021/06/15 09:59:58;;;;;;;4.13;2.97;;;;;;;22.63;37.64;96361.38;3594497;39;20044;-55
2021/06/15 10:02:27;;;;;;;3.75;3.40;;;;;;;22.69;37.60;96357.41;3582809;40;20044;-55
2021/06/15 10:04:54;;;;;;;5.47;3.17;;;;;;;22.75;38.15;96359.88;3575859;39;20055;-55
2021/06/15 10:07:27;;;;;;;5.88;2.53;;;;;;;22.86;38.34;96361.09;3594614;39;20078;-55
2021/06/15 10:09:58;;;;;;;3.40;2.67;;;;;;;22.93;37.86;96353.31;3585163;39;20044;-55
2021/06/15 10:12:26;;;;;;;4.72;2.65;;;;;;;23.11;35.84;96353.22;3593592;39;20071;-55
2021/06/15 10:14:56;;;;;;;5.82;3.20;;;;;;;23.14;36.76;96353.34;3593716;39;20032;-55
2021/06/15 10:17:24;;;;;;;4.85;2.67;;;;;;;23.23;36.47;96350.63;3594229;39;20140;-55
2021/06/15 10:19:55;;;;;;;5.93;2.40;;;;;;;23.34;36.05;96351.81;3577397;39;20319;-55
2021/06/15 10:22:23;;;;;;;4.05;2.75;;;;;;;23.36;35.96;96351.50;3594620;40;20051;-55
2021/06/15 10:24:51;;;;;;;5.65;2.40;;;;;;;23.39;35.12;96342.75;3584980;40;20052;-54
2021/06/15 10:27:18;;;;;;;3.88;2.72;;;;;;;23.49;35.36;96349.66;3584303;40;20257;-57
2021/06/15 10:29:52;;;;;;;6.07;2.97;;;;;;;23.46;34.29;96344.91;3582764;40;20409;-55
2021/06/15 10:32:24;;;;;;;4.82;2.60;;;;;;;23.31;34.63;96346.28;3593586;39;20312;-55
2021/06/15 10:34:54;;;;;;;3.75;2.78;;;;;;;23.34;35.53;96332.97;3593355;40;20056;-54
2021/06/15 10:37:31;;;;;;;2.85;2.25;;;;;;;23.51;36.10;96328.56;3576362;40;20060;-55
2021/06/15 10:40:11;;;;;;;3.78;2.03;;;;;;;23.62;36.06;96331.66;3600432;39;20062;-55
2021/06/15 10:42:40;;;;;;;5.18;2.92;;;;;;;23.69;36.40;96323.03;3584349;40;20396;-57
2021/06/15 10:45:20;;;;;;;5.05;2.33;;;;;;;23.75;35.41;96316.31;3576806;40;20062;-55
2021/06/15 10:48:06;;;;;;;4.13;2.20;;;;;;;23.78;33.89;96321.06;3594032;39;20048;-56
2021/06/15 10:50:39;;;;;;;4.10;2.15;;;;;;;23.70;32.89;96320.00;3583791;40;20051;-55
2021/06/15 10:53:10;;;;;;;2.45;2.00;;;;;;;23.69;33.60;96312.28;3584451;40;20457;-55
2021/06/15 10:55:51;;;;;;;3.63;2.42;;;;;;;23.62;33.70;96308.19;3592510;40;20056;-55
2021/06/15 10:58:48;;;;;;;2.03;1.55;;;;;;;23.77;33.29;96303.31;3584065;40;20379;-55
2021/06/15 11:01:17;;;;;;;5.60;2.80;;;;;;;23.92;34.40;96299.19;3591954;39;20062;-55
2021/06/15 11:03:52;;;;;;;1.92;1.65;;;;;;;24.11;34.17;96301.41;3581910;39;20052;-56
2021/06/15 11:06:29;;;;;;;2.13;1.67;;;;;;;24.20;32.72;96293.22;3589868;40;20056;-55
2021/06/15 11:09:03;;;;;;;2.67;2.33;;;;;;;24.24;32.84;96289.50;3576333;40;20056;-55
2021/06/15 11:11:35;;;;;;;5.15;1.80;;;;;;;24.36;32.56;96291.44;3570022;40;20044;-55
2021/06/15 11:14:28;;;;;;;2.95;1.30;;;;;;;24.35;32.82;96289.88;3574173;40;20058;-55
2021/06/15 11:17:00;;;;;;;2.55;1.80;;;;;;;24.40;32.86;96288.84;3591549;39;20260;-55
2021/06/15 11:19:34;;;;;;;4.60;1.75;;;;;;;24.46;32.60;96281.34;3593596;40;20620;-55
2021/06/15 11:22:07;;;;;;;2.28;1.40;;;;;;;24.43;31.40;96285.50;3593542;40;20039;-55
2021/06/15 11:25:01;;;;;;;2.55;1.42;;;;;;;24.52;32.01;96283.47;3592712;40;20315;-55
2021/06/15 11:27:28;;;;;;;1.50;1.02;;;;;;;24.63;31.36;96277.63;3593698;40;20052;-55
2021/06/15 11:30:01;;;;;;;2.08;1.40;;;;;;;24.62;30.21;96278.75;3584400;40;20043;-55
2021/06/15 11:32:36;;;;;;;3.13;1.33;;;;;;;24.65;31.34;96272.69;3593946;39;20092;-56
2021/06/15 11:35:04;;;;;;;2.63;1.90;;;;;;;24.73;30.66;96271.78;3591950;39;20056;-55
2021/06/15 11:37:37;;;;;;;3.08;1.60;;;;;;;24.86;32.60;96261.78;3578663;39;20060;-55
2021/06/15 11:40:28;;;;;;;2.30;1.70;;;;;;;24.80;31.23;96266.59;3579383;40;20047;-55
2021/06/15 11:43:08;;;;;;;2.42;1.40;;;;;;;24.75;29.71;96263.34;3590423;39;20056;-56
2021/06/15 11:45:44;;;;;;;2.55;1.65;;;;;;;24.68;30.32;96256.59;3575826;40;20044;-55
2021/06/15 11:48:20;;;;;;;7.40;2.03;;;;;;;24.85;31.21;96257.50;3573561;39;20044;-55
2021/06/15 11:50:55;;;;;;;2.08;1.55;;;;;;;24.97;30.80;96253.97;3576259;40;20040;-56
2021/06/15 11:53:23;;;;;;;1.85;1.40;;;;;;;25.14;31.83;96259.13;3590101;39;20052;-55
2021/06/15 11:56:01;;;;;;;2.63;1.95;;;;;;;25.35;32.28;96260.84;3583473;39;20059;-55
2021/06/15 11:58:31;;;;;;;2.15;1.88;;;;;;;25.47;31.20;96249.25;3588650;39;20304;-55
2021/06/15 12:01:04;;;;;;;2.28;2.05;;;;;;;25.46;31.40;96244.97;3590272;39;20056;-56